Time;durP1;ratioP1;P1;durP2;ratioP2;P2;SDS_P1;SDS_P2;PMS_P1;PMS_P2;Temp;Humidity;BMP_temperature;BMP_pressure;BME280_temperature;BME280_humidity;BME280_pressure;Samples;Min_cycle;Max_cycle;Signal;HPM_P1;HPM_P2
2023/04/20 00:00:14;;;;;;;15.67;8.53;;;10.00;99.90;;;;;;5015111;28;20203;-73
2023/04/20 00:02:42;;;;;;;25.47;9.20;;;10.00;99.90;;;;;;5015920;28;20203;-76
2023/04/20 00:05:10;;;;;;;20.83;9.13;;;9.90;99.90;;;;;;5016069;28;20188;-73
2023/04/20 00:07:40;;;;;;;20.50;9.73;;;9.90;99.90;;;;;;5016014;28;20210;-73
2023/04/20 00:10:08;;;;;;;15.37;8.13;;;9.90;99.90;;;;;;5015962;28;20202;-76
2023/04/20 00:12:35;;;;;;;15.40;8.47;;;9.80;99.90;;;;;;5016002;28;20195;-74
2023/04/20 00:15:02;;;;;;;19.20;9.20;;;9.80;99.90;;;;;;5015658;28;20200;-74
2023/04/20 00:17:29;;;;;;;13.67;8.30;;;9.80;99.90;;;;;;5033571;28;20196;-73
2023/04/20 00:19:56;;;;;;;26.80;10.17;;;9.70;99.90;;;;;;5015999;28;20195;-73
2023/04/20 00:22:25;;;;;;;27.23;9.50;;;9.80;99.90;;;;;;5015895;28;20199;-74
2023/04/20 00:24:51;;;;;;;13.90;8.57;;;9.80;99.90;;;;;;5015598;28;20585;-77
2023/04/20 00:27:18;;;;;;;17.47;8.80;;;9.80;99.90;;;;;;5015766;28;20185;-74
2023/04/20 00:29:45;;;;;;;18.53;8.37;;;9.80;99.90;;;;;;5015505;28;20219;-74
2023/04/20 00:32:12;;;;;;;14.73;8.63;;;9.80;99.90;;;;;;5015591;28;20223;-74
2023/04/20 00:34:39;;;;;;;15.13;8.67;;;9.80;99.90;;;;;;5015590;28;20194;-74
2023/04/20 00:37:06;;;;;;;27.07;10.17;;;9.80;99.90;;;;;;5043249;28;20226;-75
2023/04/20 00:39:32;;;;;;;16.43;8.80;;;9.80;99.90;;;;;;5020431;28;20253;-75
2023/04/20 00:42:07;;;;;;;15.90;8.73;;;9.80;99.90;;;;;;5017216;28;20219;-73
2023/04/20 00:44:34;;;;;;;14.50;9.03;;;9.80;99.90;;;;;;5015299;28;20199;-73
2023/04/20 00:47:01;;;;;;;15.40;8.43;;;9.80;99.90;;;;;;5015414;28;20200;-74
2023/04/20 00:49:30;;;;;;;16.43;8.80;;;9.80;99.90;;;;;;5014784;28;20235;-74
2023/04/20 00:51:58;;;;;;;15.93;8.93;;;9.80;99.90;;;;;;5032703;28;20191;-74
2023/04/20 00:54:30;;;;;;;14.73;8.57;;;9.80;99.90;;;;;;5015166;28;20188;-73
2023/04/20 00:56:58;;;;;;;13.17;8.23;;;9.80;99.90;;;;;;5014890;28;20199;-74
2023/04/20 00:59:25;;;;;;;14.43;8.63;;;9.80;99.90;;;;;;5015041;28;20203;-73
2023/04/20 01:01:52;;;;;;;16.33;9.20;;;9.80;99.90;;;;;;5015371;28;20204;-74
2023/04/20 01:04:19;;;;;;;14.93;8.97;;;9.80;99.90;;;;;;5015017;28;20295;-74
2023/04/20 01:06:46;;;;;;;12.47;8.03;;;9.80;99.90;;;;;;5032375;28;20184;-72
2023/04/20 01:09:13;;;;;;;16.70;8.37;;;9.80;99.90;;;;;;5014992;28;20581;-74
2023/04/20 01:11:41;;;;;;;19.17;9.03;;;9.80;99.90;;;;;;5014862;28;20282;-76
2023/04/20 01:14:08;;;;;;;22.57;9.83;;;9.80;99.90;;;;;;5032647;28;20573;-73
2023/04/20 01:16:35;;;;;;;19.80;8.63;;;9.90;99.90;;;;;;5015174;28;20192;-78
2023/04/20 01:19:02;;;;;;;15.27;8.77;;;9.90;99.90;;;;;;5015183;28;20207;-77
2023/04/20 01:21:30;;;;;;;13.53;8.33;;;9.80;99.90;;;;;;5014776;28;20187;-74
2023/04/20 01:23:56;;;;;;;14.50;8.30;;;9.90;99.90;;;;;;5015133;28;20187;-83
2023/04/20 01:26:24;;;;;;;14.70;8.80;;;9.90;99.90;;;;;;5014658;28;20231;-73
2023/04/20 01:28:51;;;;;;;13.33;8.40;;;9.90;99.90;;;;;;5014596;28;20227;-76
2023/04/20 01:31:19;;;;;;;16.50;8.47;;;9.90;99.90;;;;;;5033046;28;20622;-80
2023/04/20 01:33:46;;;;;;;12.80;8.30;;;9.90;99.90;;;;;;5032476;28;20285;-73
2023/04/20 01:36:12;;;;;;;15.20;8.33;;;10.00;99.90;;;;;;5014750;28;20199;-74
2023/04/20 01:38:40;;;;;;;14.70;8.30;;;9.90;99.90;;;;;;5032143;28;20206;-75
2023/04/20 01:41:08;;;;;;;19.30;8.83;;;10.00;99.90;;;;;;5014784;28;20210;-73
2023/04/20 01:43:37;;;;;;;14.43;8.07;;;10.00;99.90;;;;;;5014749;28;20207;-79
2023/04/20 01:46:04;;;;;;;17.37;8.40;;;10.00;99.90;;;;;;5014922;28;20199;-80
2023/04/20 01:48:32;;;;;;;14.10;8.03;;;10.00;99.90;;;;;;5015016;28;20226;-76
2023/04/20 01:50:59;;;;;;;16.27;8.93;;;10.00;99.90;;;;;;5032396;28;20550;-81
2023/04/20 01:53:27;;;;;;;15.00;7.87;;;10.00;99.90;;;;;;5036199;28;20199;-78
2023/04/20 01:55:54;;;;;;;19.10;8.70;;;10.00;99.90;;;;;;5032255;28;20682;-71
2023/04/20 01:58:21;;;;;;;15.43;8.43;;;10.00;99.90;;;;;;5032365;28;20206;-73
2023/04/20 02:00:48;;;;;;;13.23;8.30;;;10.00;99.90;;;;;;5014583;28;20584;-71
2023/04/20 02:03:16;;;;;;;14.50;8.73;;;10.00;99.90;;;;;;5032006;28;20223;-73
2023/04/20 02:05:43;;;;;;;14.03;8.17;;;10.00;99.90;;;;;;5014354;28;20210;-72
2023/04/20 02:08:10;;;;;;;20.07;8.83;;;10.00;99.90;;;;;;5014128;28;20230;-71
2023/04/20 02:10:37;;;;;;;16.43;8.77;;;10.00;99.90;;;;;;5014433;28;20687;-72
2023/04/20 02:13:04;;;;;;;14.33;8.23;;;10.00;99.90;;;;;;5014324;28;20191;-73
2023/04/20 02:15:30;;;;;;;12.80;8.37;;;10.00;99.90;;;;;;5014207;28;20208;-71
2023/04/20 02:17:57;;;;;;;12.37;8.03;;;10.00;99.90;;;;;;5013997;28;20221;-71
2023/04/20 02:20:25;;;;;;;13.43;8.53;;;10.00;99.90;;;;;;5014431;28;20286;-71
2023/04/20 02:22:52;;;;;;;14.83;8.60;;;10.00;99.90;;;;;;5015519;28;20204;-73
2023/04/20 02:25:19;;;;;;;15.40;8.40;;;9.90;99.90;;;;;;5017915;28;20203;-72
2023/04/20 02:27:46;;;;;;;26.70;9.70;;;10.00;99.90;;;;;;5035408;28;20191;-71
2023/04/20 02:30:13;;;;;;;14.73;7.83;;;10.00;99.90;;;;;;5017728;28;20215;-72
2023/04/20 02:32:40;;;;;;;13.47;8.03;;;10.00;99.90;;;;;;5017620;28;20211;-72
2023/04/20 02:35:07;;;;;;;15.17;8.17;;;9.90;99.90;;;;;;5017594;28;20199;-71
2023/04/20 02:37:34;;;;;;;13.53;8.40;;;9.90;99.90;;;;;;5017511;28;20641;-71
2023/04/20 02:40:01;;;;;;;14.80;8.57;;;9.90;99.90;;;;;;5017606;28;20203;-72
2023/04/20 02:42:29;;;;;;;17.20;8.57;;;10.00;99.90;;;;;;4997853;28;20196;-72
2023/04/20 02:44:56;;;;;;;18.33;8.43;;;10.00;99.90;;;;;;4998173;28;20227;-72
2023/04/20 02:47:23;;;;;;;16.43;9.10;;;10.00;99.90;;;;;;4997755;28;20200;-72
2023/04/20 02:49:50;;;;;;;15.03;8.63;;;10.00;99.90;;;;;;4997578;28;20267;-72
2023/04/20 02:52:17;;;;;;;16.43;8.80;;;10.00;99.90;;;;;;4997909;28;20204;-72
2023/04/20 02:54:44;;;;;;;16.10;8.83;;;10.00;99.90;;;;;;4997675;28;20196;-73
2023/04/20 02:57:10;;;;;;;14.00;8.20;;;10.00;99.90;;;;;;4997536;28;20203;-72
2023/04/20 02:59:37;;;;;;;14.10;8.80;;;10.00;99.90;;;;;;4997578;28;20196;-72
2023/04/20 03:02:04;;;;;;;21.53;8.93;;;10.00;99.90;;;;;;4997301;28;20246;-72
2023/04/20 03:04:31;;;;;;;13.80;8.80;;;10.00;99.90;;;;;;5015045;28;20206;-72
2023/04/20 03:07:00;;;;;;;14.07;8.60;;;10.00;99.90;;;;;;4997283;28;20200;-73
2023/04/20 03:09:27;;;;;;;12.80;8.40;;;10.00;99.90;;;;;;4997215;28;20216;-73
2023/04/20 03:11:54;;;;;;;14.87;8.83;;;9.90;99.90;;;;;;4997354;28;20192;-72
2023/04/20 03:14:20;;;;;;;15.93;9.10;;;9.90;99.90;;;;;;4997240;28;20204;-71
2023/04/20 03:16:47;;;;;;;15.07;8.90;;;9.90;99.90;;;;;;4997014;28;20192;-72
2023/04/20 03:19:14;;;;;;;15.70;9.30;;;9.90;99.90;;;;;;5015166;28;20243;-72
2023/04/20 03:21:43;;;;;;;14.87;9.47;;;9.90;99.90;;;;;;4997197;28;20244;-72
2023/04/20 03:24:10;;;;;;;15.37;9.80;;;10.00;99.90;;;;;;4997023;28;20202;-72
2023/04/20 03:26:37;;;;;;;17.00;9.47;;;10.00;99.90;;;;;;4997049;28;20219;-72
2023/04/20 03:29:04;;;;;;;17.07;10.00;;;10.00;99.90;;;;;;4996971;28;20224;-73
2023/04/20 03:31:30;;;;;;;16.60;9.47;;;10.00;99.90;;;;;;4996932;28;20557;-71
2023/04/20 03:33:57;;;;;;;17.10;10.07;;;10.00;99.90;;;;;;4996457;28;20647;-72
2023/04/20 03:36:24;;;;;;;14.60;9.63;;;10.00;99.90;;;;;;5014461;28;20234;-72
2023/04/20 03:38:51;;;;;;;27.17;10.40;;;9.90;99.90;;;;;;4996482;28;20196;-73
2023/04/20 03:41:18;;;;;;;18.77;9.90;;;9.90;99.90;;;;;;4997180;28;20200;-73
2023/04/20 03:43:45;;;;;;;15.47;9.40;;;9.90;99.90;;;;;;4996860;28;20192;-73
2023/04/20 03:46:11;;;;;;;23.47;10.63;;;9.90;99.90;;;;;;5014472;28;20204;-73
2023/04/20 03:48:38;;;;;;;15.20;9.73;;;9.80;99.90;;;;;;4996682;28;20632;-73
2023/04/20 03:51:05;;;;;;;18.83;9.53;;;9.80;99.90;;;;;;5014559;28;20597;-74
2023/04/20 03:53:32;;;;;;;15.40;9.00;;;9.80;99.90;;;;;;4996429;28;20287;-72
2023/04/20 03:55:59;;;;;;;14.47;9.30;;;9.80;99.90;;;;;;4996583;28;20188;-73
2023/04/20 03:58:26;;;;;;;18.03;9.37;;;9.70;99.90;;;;;;4996172;28;20232;-73
2023/04/20 04:01:01;;;;;;;15.20;9.30;;;9.70;99.90;;;;;;4998730;28;20231;-80
2023/04/20 04:03:28;;;;;;;15.50;9.57;;;9.70;99.90;;;;;;4996325;28;20210;-73
2023/04/20 04:05:55;;;;;;;15.13;9.50;;;9.70;99.90;;;;;;4996670;28;20196;-72
2023/04/20 04:08:22;;;;;;;16.13;9.00;;;9.60;99.90;;;;;;4995958;28;20204;-74
2023/04/20 04:10:48;;;;;;;14.97;9.00;;;9.60;99.90;;;;;;4996417;28;20211;-73
2023/04/20 04:13:15;;;;;;;15.40;9.10;;;9.60;99.90;;;;;;5013788;28;20215;-73
2023/04/20 04:15:43;;;;;;;15.07;9.70;;;9.60;99.90;;;;;;4996310;28;20207;-73
2023/04/20 04:18:09;;;;;;;16.33;9.60;;;9.60;99.90;;;;;;5013551;28;20207;-72
2023/04/20 04:20:37;;;;;;;14.83;9.23;;;9.60;99.90;;;;;;4995988;28;20299;-74
2023/04/20 04:23:05;;;;;;;17.27;9.90;;;9.60;99.90;;;;;;4995924;28;20207;-73
2023/04/20 04:25:36;;;;;;;20.33;9.73;;;9.60;99.90;;;;;;4998338;28;20208;-75
2023/04/20 04:28:03;;;;;;;15.87;9.80;;;9.70;99.90;;;;;;4996189;28;20637;-73
2023/04/20 04:30:30;;;;;;;19.03;9.73;;;9.70;99.90;;;;;;4995607;28;20227;-74
2023/04/20 04:32:58;;;;;;;20.90;10.17;;;9.70;99.90;;;;;;4995902;28;20195;-73
2023/04/20 04:35:25;;;;;;;18.83;9.23;;;9.70;99.90;;;;;;4995909;28;20223;-73
2023/04/20 04:37:52;;;;;;;18.00;9.90;;;9.80;99.90;;;;;;4995525;28;20215;-74
2023/04/20 04:40:19;;;;;;;14.93;9.70;;;9.80;99.90;;;;;;4996087;28;20219;-76
2023/04/20 04:42:47;;;;;;;17.93;9.23;;;9.90;99.90;;;;;;4995751;28;20653;-75
2023/04/20 04:45:14;;;;;;;17.97;9.17;;;9.90;99.90;;;;;;4994847;28;20227;-74
2023/04/20 04:47:42;;;;;;;15.63;9.47;;;9.90;99.90;;;;;;4995277;28;20258;-74
2023/04/20 04:50:09;;;;;;;17.10;9.40;;;10.00;99.90;;;;;;4995374;28;20235;-73
2023/04/20 04:52:36;;;;;;;17.03;9.53;;;10.10;99.90;;;;;;5012814;28;20192;-73
2023/04/20 04:55:07;;;;;;;19.70;10.30;;;10.10;99.90;;;;;;4995779;28;20287;-72
2023/04/20 04:57:34;;;;;;;15.13;9.60;;;10.20;99.90;;;;;;4995348;28;20287;-73
2023/04/20 05:00:05;;;;;;;22.17;10.13;;;10.20;99.90;;;;;;5012437;28;20227;-74
2023/04/20 05:02:32;;;;;;;15.07;9.27;;;10.30;99.90;;;;;;5014863;28;20192;-74
2023/04/20 05:05:00;;;;;;;15.00;9.60;;;10.30;99.90;;;;;;5014702;28;20683;-74
2023/04/20 05:07:27;;;;;;;17.03;9.63;;;10.40;99.90;;;;;;5014935;28;20194;-73
2023/04/20 05:09:54;;;;;;;16.13;9.57;;;10.40;99.90;;;;;;5014879;28;20285;-73
2023/04/20 05:12:21;;;;;;;17.13;9.80;;;10.50;99.90;;;;;;5014837;28;20199;-74
2023/04/20 05:14:48;;;;;;;16.60;9.93;;;10.50;99.90;;;;;;5014717;28;20195;-73
2023/04/20 05:17:14;;;;;;;14.13;9.63;;;10.60;99.90;;;;;;5027909;28;20192;-72
2023/04/20 05:19:41;;;;;;;17.27;9.60;;;10.60;99.90;;;;;;4996169;28;20207;-71
2023/04/20 05:22:08;;;;;;;13.67;9.33;;;10.60;99.90;;;;;;4994863;28;20196;-72
2023/04/20 05:24:35;;;;;;;14.57;9.00;;;10.70;99.90;;;;;;5012530;28;20229;-72
2023/04/20 05:27:03;;;;;;;15.83;8.70;;;10.70;99.90;;;;;;4994731;28;20688;-72
2023/04/20 05:29:30;;;;;;;16.53;9.33;;;10.80;99.90;;;;;;4994714;28;20387;-72
2023/04/20 05:31:56;;;;;;;14.87;9.20;;;10.90;99.90;;;;;;4994789;28;20216;-73
2023/04/20 05:34:23;;;;;;;17.03;9.13;;;11.00;99.90;;;;;;4995176;28;20243;-72
2023/04/20 05:36:51;;;;;;;14.37;8.50;;;11.00;99.90;;;;;;4994988;28;20203;-73
2023/04/20 05:39:18;;;;;;;17.60;9.30;;;11.10;99.90;;;;;;4994672;28;20645;-72
2023/04/20 05:41:46;;;;;;;16.70;9.10;;;11.10;99.90;;;;;;5012400;28;20210;-72
2023/04/20 05:44:14;;;;;;;15.03;8.73;;;11.10;99.90;;;;;;5012361;28;20192;-71
2023/04/20 05:46:41;;;;;;;18.57;8.90;;;11.10;99.90;;;;;;4994575;28;20242;-71
2023/04/20 05:49:08;;;;;;;17.77;9.23;;;11.10;99.90;;;;;;4994274;28;20235;-73
2023/04/20 05:51:35;;;;;;;16.17;9.07;;;11.00;99.90;;;;;;5012247;28;20299;-72
2023/04/20 05:54:02;;;;;;;20.63;9.93;;;11.00;99.90;;;;;;4994349;28;20188;-72
2023/04/20 05:56:29;;;;;;;14.77;8.40;;;11.00;99.90;;;;;;5035346;23;20235;-71
2023/04/20 05:58:57;;;;;;;11.97;8.40;;;11.00;99.90;;;;;;5039734;28;20202;-71
2023/04/20 06:01:24;;;;;;;17.57;8.83;;;11.00;99.90;;;;;;5042324;28;20554;-72
2023/04/20 06:03:52;;;;;;;16.20;8.50;;;11.10;99.90;;;;;;5055401;28;20191;-79
2023/04/20 06:06:19;;;;;;;15.97;8.70;;;11.20;99.90;;;;;;5038046;28;20198;-72
2023/04/20 06:08:46;;;;;;;15.47;8.73;;;11.30;99.90;;;;;;5055943;28;20647;-73
2023/04/20 06:11:13;;;;;;;13.53;8.17;;;11.40;99.90;;;;;;5055963;28;20211;-71
2023/04/20 06:13:43;;;;;;;13.77;7.90;;;11.50;99.90;;;;;;5038303;28;20206;-73
2023/04/20 06:16:11;;;;;;;16.93;8.00;;;11.60;99.90;;;;;;5037792;28;20943;-73
2023/04/20 06:18:38;;;;;;;13.20;8.03;;;11.70;99.90;;;;;;5056728;28;20190;-74
2023/04/20 06:21:10;;;;;;;20.63;8.33;;;11.80;99.90;;;;;;5059877;28;20678;-85
2023/04/20 06:23:39;;;;;;;17.53;7.70;;;11.90;99.90;;;;;;5061266;28;20191;-72
2023/04/20 06:26:08;;;;;;;14.33;7.30;;;12.10;99.90;;;;;;5038170;28;20206;-73
2023/04/20 06:28:36;;;;;;;13.03;6.80;;;12.20;99.90;;;;;;5037779;28;20206;-73
2023/04/20 06:31:04;;;;;;;15.70;6.87;;;12.30;99.90;;;;;;5021104;28;20230;-73
2023/04/20 06:33:32;;;;;;;12.17;6.93;;;12.40;99.90;;;;;;5053954;28;20206;-73
2023/04/20 06:35:59;;;;;;;15.50;7.10;;;12.50;99.90;;;;;;5037290;28;20198;-75
2023/04/20 06:38:25;;;;;;;15.20;6.97;;;12.60;99.90;;;;;;5055076;28;20194;-73
2023/04/20 06:40:52;;;;;;;25.43;9.20;;;12.70;99.90;;;;;;5037395;28;20210;-73
2023/04/20 06:43:19;;;;;;;12.43;7.00;;;12.70;99.90;;;;;;5037389;28;20198;-73
2023/04/20 06:45:46;;;;;;;14.63;6.33;;;12.90;99.90;;;;;;5055110;28;20206;-73
2023/04/20 06:48:16;;;;;;;13.47;6.30;;;13.00;99.90;;;;;;5037333;28;20187;-73
2023/04/20 06:50:49;;;;;;;12.77;6.43;;;13.00;99.90;;;;;;5037309;28;20211;-75
2023/04/20 06:53:16;;;;;;;12.30;5.90;;;13.10;99.90;;;;;;5037245;28;20200;-74
2023/04/20 06:55:44;;;;;;;12.23;5.50;;;13.10;99.90;;;;;;5036854;28;20219;-76
2023/04/20 06:58:11;;;;;;;13.77;5.47;;;13.20;99.90;;;;;;5037286;28;20199;-73
2023/04/20 07:00:37;;;;;;;10.80;5.33;;;13.30;99.90;;;;;;5037068;28;20210;-76
2023/04/20 07:03:04;;;;;;;13.37;5.77;;;13.40;99.90;;;;;;5055053;28;20187;-76
2023/04/20 07:05:31;;;;;;;23.30;5.60;;;13.50;99.90;;;;;;5037047;28;20207;-75
2023/04/20 07:07:58;;;;;;;15.33;5.80;;;13.60;99.90;;;;;;5035930;28;20195;-75
2023/04/20 07:10:25;;;;;;;11.93;5.53;;;13.70;99.90;;;;;;5037006;28;20221;-76
2023/04/20 07:12:53;;;;;;;10.80;5.20;;;13.80;99.90;;;;;;5036910;28;20742;-77
2023/04/20 07:15:20;;;;;;;11.77;5.20;;;13.90;99.90;;;;;;5037459;28;20233;-75
2023/04/20 07:17:46;;;;;;;14.07;5.53;;;14.10;99.90;;;;;;5037531;28;20194;-84
2023/04/20 07:20:20;;;;;;;8.03;5.00;;;14.20;99.90;;;;;;5038375;28;20679;-75
2023/04/20 07:22:48;;;;;;;11.37;5.10;;;14.40;99.90;;;;;;5036701;28;20207;-74
2023/04/20 07:25:16;;;;;;;10.57;4.90;;;14.50;99.90;;;;;;5054728;28;20194;-75
2023/04/20 07:27:43;;;;;;;13.40;5.23;;;14.80;99.90;;;;;;5036712;28;20198;-74
2023/04/20 07:30:11;;;;;;;10.13;4.70;;;14.90;99.90;;;;;;5020157;28;20839;-74
2023/04/20 07:32:39;;;;;;;10.17;5.23;;;15.00;99.90;;;;;;5036493;28;20210;-73
2023/04/20 07:35:08;;;;;;;11.50;4.47;;;15.20;99.90;;;;;;5036859;28;20206;-73
2023/04/20 07:37:35;;;;;;;12.33;4.93;;;15.30;99.90;;;;;;5036074;28;20602;-72
2023/04/20 07:40:05;;;;;;;14.10;4.70;;;15.40;99.90;;;;;;5054128;28;20197;-74
2023/04/20 07:42:33;;;;;;;11.67;4.33;;;15.60;99.90;;;;;;5055218;28;20257;-75
2023/04/20 07:45:00;;;;;;;11.73;4.20;;;15.80;99.90;;;;;;5036748;28;20208;-77
2023/04/20 07:47:27;;;;;;;15.47;4.07;;;15.90;99.90;;;;;;5054611;28;20200;-74
2023/04/20 07:49:56;;;;;;;13.63;3.93;;;16.00;99.90;;;;;;5052661;28;20211;-72
2023/04/20 07:52:24;;;;;;;13.30;3.80;;;16.10;99.90;;;;;;5054521;28;20195;-72
2023/04/20 07:54:57;;;;;;;15.47;3.90;;;16.20;99.90;;;;;;5052116;28;20640;-75
2023/04/20 07:57:25;;;;;;;18.43;4.43;;;16.40;99.90;;;;;;5036058;28;20202;-80
2023/04/20 08:00:00;;;;;;;15.37;3.40;;;16.70;99.90;;;;;;5036161;28;20199;-76
2023/04/20 08:02:30;;;;;;;15.50;3.90;;;16.80;99.90;;;;;;5054687;28;20195;-83
2023/04/20 08:04:57;;;;;;;10.10;3.33;;;17.20;99.90;;;;;;5036223;28;20199;-75
2023/04/20 08:07:25;;;;;;;11.13;2.90;;;17.90;99.90;;;;;;5053471;28;20218;-73
2023/04/20 08:09:52;;;;;;;13.30;3.57;;;18.60;99.90;;;;;;5052097;28;20203;-74
2023/04/20 08:12:18;;;;;;;14.50;3.60;;;19.40;99.90;;;;;;5053446;28;20552;-73
2023/04/20 08:14:45;;;;;;;16.40;3.43;;;20.00;99.90;;;;;;5035596;28;20305;-76
2023/04/20 08:17:14;;;;;;;13.83;3.33;;;20.30;99.90;;;;;;5035897;28;20262;-74
2023/04/20 08:19:42;;;;;;;13.60;3.40;;;20.40;99.90;;;;;;5034906;28;20214;-73
2023/04/20 08:22:12;;;;;;;12.80;3.30;;;20.40;99.90;;;;;;5053097;28;20195;-78
2023/04/20 08:24:40;;;;;;;18.70;4.10;;;20.90;97.60;;;;;;5034854;28;20195;-74
2023/04/20 08:27:08;;;;;;;14.23;3.60;;;21.20;96.60;;;;;;5053199;28;20191;-74
2023/04/20 08:29:35;;;;;;;21.13;3.43;;;21.50;93.60;;;;;;5051993;28;20286;-74
2023/04/20 08:32:02;;;;;;;14.60;3.33;;;21.50;93.70;;;;;;5035119;28;20225;-74
2023/04/20 08:34:29;;;;;;;14.23;3.13;;;21.50;93.60;;;;;;5053279;28;20183;-74
2023/04/20 08:36:56;;;;;;;12.63;2.80;;;21.50;93.10;;;;;;5034871;28;20197;-74
2023/04/20 08:39:23;;;;;;;10.07;2.90;;;21.40;91.90;;;;;;5035975;28;20222;-79
2023/04/20 08:41:54;;;;;;;8.67;3.27;;;21.70;90.90;;;;;;5036970;28;20226;-84
2023/04/20 08:44:21;;;;;;;15.67;4.47;;;22.00;92.70;;;;;;5055307;28;20659;-83
2023/04/20 08:46:49;;;;;;;11.43;4.97;;;22.40;90.70;;;;;;5051885;28;20205;-85
2023/04/20 08:49:18;;;;;;;13.23;3.13;;;22.50;88.80;;;;;;5035536;28;20298;-85
2023/04/20 08:51:46;;;;;;;12.03;2.97;;;22.70;87.30;;;;;;5053294;28;20264;-74
2023/04/20 08:54:15;;;;;;;11.40;2.70;;;22.80;81.00;;;;;;5034482;28;20575;-76
2023/04/20 08:56:46;;;;;;;12.33;3.13;;;23.00;80.70;;;;;;5034623;28;20254;-77
2023/04/20 08:59:19;;;;;;;10.27;2.80;;;23.10;81.40;;;;;;5052337;28;20672;-76
2023/04/20 09:01:47;;;;;;;10.30;2.80;;;23.40;79.40;;;;;;5035011;28;20336;-74
2023/04/20 09:04:22;;;;;;;13.57;3.08;;;23.50;72.00;;;;;;5018570;28;20230;-77
2023/04/20 09:06:54;;;;;;;10.40;2.83;;;23.40;71.20;;;;;;5034059;28;20206;-74
2023/04/20 09:09:24;;;;;;;12.93;3.17;;;23.30;74.00;;;;;;5042068;28;20274;-75
2023/04/20 09:12:01;;;;;;;14.13;3.20;;;23.40;73.70;;;;;;5025723;28;20250;-75
2023/04/20 09:14:29;;;;;;;10.93;2.70;;;23.20;71.00;;;;;;5014650;28;20187;-76
2023/04/20 09:17:01;;;;;;;9.73;2.40;;;22.90;68.80;;;;;;5047692;28;20195;-76
2023/04/20 09:19:29;;;;;;;12.60;2.87;;;22.30;70.50;;;;;;5034278;28;20195;-76
2023/04/20 09:21:58;;;;;;;10.77;2.70;;;22.60;74.50;;;;;;5052484;28;20586;-80
2023/04/20 09:24:33;;;;;;;13.53;2.83;;;22.60;69.00;;;;;;5045987;28;20653;-74
2023/04/20 09:27:12;;;;;;;17.20;3.70;;;22.70;70.90;;;;;;5014897;28;20203;-76
2023/04/20 09:29:41;;;;;;;12.00;2.57;;;22.90;68.90;;;;;;5014682;28;20191;-77
2023/04/20 09:32:22;;;;;;;7.63;2.67;;;22.70;69.40;;;;;;5031826;28;20227;-77
2023/04/20 09:34:49;;;;;;;10.47;2.97;;;22.80;67.70;;;;;;5032367;28;20201;-73
2023/04/20 09:37:16;;;;;;;6.40;2.10;;;22.70;64.30;;;;;;5032277;28;20184;-76
2023/04/20 09:39:48;;;;;;;8.27;2.73;;;22.60;64.20;;;;;;4998909;28;20207;-76
2023/04/20 09:42:16;;;;;;;11.27;2.50;;;22.80;64.30;;;;;;5032254;28;20199;-74
2023/04/20 09:44:43;;;;;;;9.47;2.40;;;22.90;65.80;;;;;;5032379;28;20176;-83
2023/04/20 09:47:20;;;;;;;7.22;2.70;;;23.20;64.40;;;;;;5014386;28;20281;-75
2023/04/20 09:49:47;;;;;;;7.38;2.70;;;23.50;60.90;;;;;;5014217;28;20737;-74
2023/04/20 09:52:17;;;;;;;8.48;2.80;;;23.60;60.70;;;;;;5014169;28;20215;-73
2023/04/20 09:54:45;;;;;;;8.73;2.55;;;23.80;60.10;;;;;;5013908;28;20199;-73
2023/04/20 09:57:13;;;;;;;9.77;3.00;;;23.90;60.30;;;;;;5013996;28;20192;-76
2023/04/20 09:59:45;;;;;;;14.32;2.92;;;24.20;59.80;;;;;;5014505;28;20207;-77
2023/04/20 10:02:12;;;;;;;9.75;2.47;;;24.50;59.00;;;;;;5014114;28;20204;-77
2023/04/20 10:05:06;;;;;;;13.30;2.90;;;24.60;57.50;;;;;;5014031;28;20209;-73
2023/04/20 10:07:34;;;;;;;5.97;2.60;;;25.00;57.60;;;;;;5013754;28;20637;-75
2023/04/20 10:10:09;;;;;;;7.43;2.72;;;25.40;57.80;;;;;;5013867;28;20203;-75
2023/04/20 10:13:05;;;;;;;6.53;2.85;;;25.30;57.10;;;;;;5031752;28;20253;-76
2023/04/20 10:15:47;;;;;;;9.57;2.80;;;24.70;55.10;;;;;;5027780;23;20230;-77
2023/04/20 10:18:16;;;;;;;7.90;2.60;;;24.00;55.40;;;;;;5033701;28;20191;-76
2023/04/20 10:20:44;;;;;;;6.15;2.70;;;24.00;56.20;;;;;;4998745;22;20237;-75
2023/04/20 10:23:17;;;;;;;8.50;2.40;;;24.00;55.90;;;;;;4992398;28;20212;-75
2023/04/20 10:25:59;;;;;;;3.35;2.30;;;23.80;55.50;;;;;;4990669;28;20567;-74
2023/04/20 10:28:40;;;;;;;7.93;2.65;;;23.10;56.50;;;;;;4992436;28;20211;-76
2023/04/20 10:31:12;;;;;;;5.93;2.30;;;22.90;57.70;;;;;;4991943;28;20327;-77
2023/04/20 10:33:55;;;;;;;10.00;2.67;;;23.00;58.60;;;;;;4974737;28;20185;-77
2023/04/20 10:36:30;;;;;;;10.10;2.67;;;23.50;57.20;;;;;;4959281;28;20208;-78
2023/04/20 10:38:57;;;;;;;9.80;2.83;;;24.00;57.40;;;;;;4974622;28;20200;-78
2023/04/20 10:41:24;;;;;;;7.22;2.42;;;24.50;55.10;;;;;;4958622;28;20193;-77
2023/04/20 10:44:07;;;;;;;9.85;2.80;;;24.80;54.40;;;;;;4977627;28;20555;-76
2023/04/20 10:46:35;;;;;;;4.88;2.33;;;25.20;52.80;;;;;;4978087;28;20196;-76
2023/04/20 10:49:02;;;;;;;6.57;2.40;;;25.40;50.90;;;;;;4995756;28;20196;-80
2023/04/20 10:51:30;;;;;;;8.40;2.78;;;25.40;50.00;;;;;;4978447;28;20232;-73
2023/04/20 10:54:07;;;;;;;7.28;2.75;;;25.50;49.90;;;;;;4978054;28;20288;-76
2023/04/20 10:56:41;;;;;;;9.38;2.80;;;25.60;51.40;;;;;;4995162;28;20200;-74
2023/04/20 10:59:15;;;;;;;6.15;2.60;;;26.00;50.70;;;;;;4995399;28;20560;-76
2023/04/20 11:01:45;;;;;;;11.05;3.95;;;26.20;50.90;;;;;;4977884;28;20189;-77
2023/04/20 11:04:13;;;;;;;6.78;2.42;;;26.60;49.90;;;;;;4995202;28;20534;-77
2023/04/20 11:06:46;;;;;;;7.53;2.33;;;26.80;49.70;;;;;;4977964;28;20201;-74
2023/04/20 11:09:22;;;;;;;16.08;2.95;;;26.90;48.30;;;;;;4977749;28;20245;-74
2023/04/20 11:12:07;;;;;;;6.30;2.45;;;27.00;49.80;;;;;;4977474;28;20319;-76
2023/04/20 11:14:39;;;;;;;7.63;2.85;;;27.20;49.00;;;;;;4977609;28;20204;-76
2023/04/20 11:17:06;;;;;;;4.93;2.80;;;26.80;47.90;;;;;;4994707;28;20227;-76
2023/04/20 11:19:34;;;;;;;6.20;2.55;;;26.20;49.10;;;;;;4979292;28;20530;-77
2023/04/20 11:22:05;;;;;;;5.03;2.97;;;25.60;49.80;;;;;;4997173;28;20254;-76
2023/04/20 11:24:34;;;;;;;11.05;2.70;;;25.30;49.20;;;;;;4997001;28;20192;-78
2023/04/20 11:27:03;;;;;;;9.18;3.00;;;25.40;49.20;;;;;;4980712;28;20197;-76
2023/04/20 11:29:32;;;;;;;6.95;2.90;;;25.30;50.00;;;;;;4997056;28;20631;-77
2023/04/20 11:32:04;;;;;;;7.47;2.80;;;25.30;47.40;;;;;;4996752;28;20692;-74
2023/04/20 11:34:33;;;;;;;6.70;2.88;;;25.70;48.30;;;;;;4996853;28;20324;-76
2023/04/20 11:37:05;;;;;;;4.78;2.63;;;25.70;48.50;;;;;;4997031;28;20558;-74
2023/04/20 11:39:32;;;;;;;7.53;2.78;;;25.90;48.10;;;;;;4996785;28;20208;-75
2023/04/20 11:42:02;;;;;;;5.55;3.00;;;25.90;47.70;;;;;;4996665;28;20196;-80
2023/04/20 11:44:30;;;;;;;8.45;2.83;;;25.70;48.10;;;;;;5014138;28;20890;-81
2023/04/20 11:46:58;;;;;;;5.80;2.83;;;25.70;50.70;;;;;;4996610;28;20246;-79
2023/04/20 11:49:27;;;;;;;10.02;3.10;;;25.90;49.50;;;;;;5014394;28;20558;-81
2023/04/20 11:51:54;;;;;;;11.25;3.40;;;25.80;48.10;;;;;;4996774;28;20227;-82
2023/04/20 11:54:22;;;;;;;6.57;2.95;;;26.60;49.00;;;;;;4996437;28;20254;-82
2023/04/20 11:56:50;;;;;;;9.45;3.00;;;27.30;48.10;;;;;;5014808;28;20196;-81
2023/04/20 11:59:18;;;;;;;9.20;3.17;;;28.10;46.90;;;;;;5014381;28;20206;-82
2023/04/20 12:01:46;;;;;;;6.15;2.90;;;28.60;45.00;;;;;;5014034;28;20200;-78
2023/04/20 12:04:14;;;;;;;8.65;3.00;;;28.80;45.80;;;;;;4996686;28;20267;-79
2023/04/20 12:06:42;;;;;;;5.50;2.78;;;28.90;44.80;;;;;;4995938;28;20654;-80
2023/04/20 12:09:09;;;;;;;6.10;3.15;;;28.90;44.90;;;;;;5013762;28;20185;-79
2023/04/20 12:11:36;;;;;;;6.72;2.58;;;29.20;44.10;;;;;;4995894;28;20224;-79
2023/04/20 12:14:03;;;;;;;7.03;2.75;;;29.40;43.90;;;;;;4996058;28;20196;-80
2023/04/20 12:19:13;;;;;;;7.85;2.92;;;29.00;43.20;;;;;;4971760;28;20241;-76
2023/04/20 12:21:40;;;;;;;7.20;3.08;;;29.10;42.40;;;;;;4975179;28;20520;-78
2023/04/20 12:24:08;;;;;;;5.00;2.88;;;29.10;43.10;;;;;;4974473;28;20536;-79
2023/04/20 12:26:49;;;;;;;6.93;2.78;;;29.10;41.30;;;;;;4943057;28;20201;-81
2023/04/20 12:29:16;;;;;;;5.28;2.72;;;29.20;43.10;;;;;;4957393;28;20202;-82
2023/04/20 12:44:00;;;;;;;6.72;3.40;;;24.90;46.50;;;;;;5229362;23;20739;-79
2023/04/20 12:46:54;;;;;;;6.85;3.28;;;24.10;48.90;;;;;;5025816;28;20595;-79
2023/04/20 12:49:21;;;;;;;7.07;3.13;;;23.80;49.60;;;;;;5038290;28;20198;-80
2023/04/20 12:51:48;;;;;;;6.50;2.95;;;23.60;49.20;;;;;;5054829;28;20222;-79
2023/04/20 12:54:18;;;;;;;6.82;3.10;;;23.60;50.50;;;;;;5054969;28;20190;-79
2023/04/20 12:56:45;;;;;;;10.75;4.82;;;23.80;48.60;;;;;;5072505;28;20194;-78
2023/04/20 12:59:14;;;;;;;6.47;3.28;;;24.30;49.00;;;;;;5054963;28;20559;-77
2023/04/20 13:01:40;;;;;;;7.93;3.00;;;25.00;47.10;;;;;;5055383;28;20217;-81